Latest Coastal Weather Observations for Broome Port

IDW60701

Issued at 12:12 am WST Sunday 1 February 2015 (issued every 10 minutes, with the page automatically refreshed every 10 minutes)

About coastal observations | Map of coastal stations | Coastal observations for WA | Marine services | Other Formats
Station Details ID: 003102 Name: BROOME NTC AWS Lat: -18.00 Lon: 122.22 Height: 0.0 m
Data from the previous 72 hours. | See also: Recent months for locations in Western Australia
Date/Time
WST
Temp

°C
Wind Pressure Rain
since 9am
mm
Weather Cloud Vis
km
Sea
Height
m
Swell
Dir
 
Speed
knots
Gust
knots
hPa Trend Height
m
Period
s
Dir
01/12:00am 28.9 WNW 10 14 1008.3 - - - - - - - - -
 
Date/Time
WST
Temp

°C
Wind Pressure Rain
since 9am
mm
Weather Cloud Vis
km
Sea
Height
m
Swell
Dir
 
Speed
knots
Gust
knots
hPa Trend Height
m
Period
s
Dir
31/11:30pm 29.0 WNW 11 14 1008.4 - - - - - - - - -
31/11:00pm 29.1 WNW 10 13 1008.4 - - - - - - - - -
31/10:30pm 29.2 WNW 10 12 1008.4 - - - - - - - - -
31/10:00pm 29.2 WNW 10 13 1008.3 - - - - - - - - -
31/09:30pm 29.2 WNW 11 13 1008.2 - - - - - - - - -
31/09:00pm 29.4 W 11 12 1008.0 - - - - - - - - -
31/08:30pm 29.3 W 10 13 1007.8 - - - - - - - - -
31/08:00pm 29.4 W 10 13 1007.5 - - - - - - - - -
31/07:30pm 29.4 WNW 12 15 1007.3 - - - - - - - - -
31/07:00pm 29.4 WNW 13 16 1006.9 - - - - - - - - -
31/06:30pm 29.5 WNW 15 19 1006.6 - - - - - - - - -
31/06:00pm 29.6 WNW 12 15 1006.2 - - - - - - - - -
31/05:30pm 29.8 WNW 12 14 1005.9 - - - - - - - - -
31/05:00pm 29.8 WNW 12 14 1005.5 - - - - - - - - -
31/04:30pm 29.7 WNW 11 14 1005.7 - - - - - - - - -
31/04:00pm 29.8 WNW 11 14 1005.8 - - - - - - - - -
31/03:30pm 29.8 WNW 11 13 1006.1 - - - - - - - - -
31/03:00pm 30.2 W 10 13 1006.0 - - - - - - - - -
31/02:30pm 30.0 W 10 12 1006.5 - - - - - - - - -
31/02:00pm 30.0 W 10 13 1006.5 - - - - - - - - -
31/01:30pm 29.5 W 10 13 1006.9 - - - - - - - - -
31/01:00pm 29.5 W 10 13 1007.3 - - - - - - - - -
31/12:30pm 29.1 WNW 9 11 1007.5 - - - - - - - - -
31/12:00pm 29.3 W 6 9 1008.0 - - - - - - - - -
31/11:30am 29.1 SW 5 7 1008.3 - - - - - - - - -
31/11:00am 29.2 S 2 4 1008.8 - - - - - - - - -
31/10:30am 28.2 SE 2 4 1009.0 - - - - - - - - -
31/10:00am 27.7 SE 3 4 1009.0 - - - - - - - - -
31/09:30am 27.3 S 3 5 1009.0 - - - - - - - - -
31/09:00am 27.3 ENE 1 3 1008.8 - - - - - - - - -
31/08:30am 25.6 NW 12 15 1009.0 - - - - - - - - -
31/08:00am 26.3 SW 5 8 1009.2 - - - - - - - - -
31/07:30am 26.1 W 10 12 1009.0 - - - - - - - - -
31/07:00am 25.9 SW 14 19 1009.1 - - - - - - - - -
31/06:30am 26.1 SSE 18 21 1009.0 - - - - - - - - -
31/06:00am 26.9 SSE 15 19 1008.2 - - - - - - - - -
31/05:30am 28.9 W 10 12 1007.6 - - - - - - - - -
31/05:00am 28.8 WNW 10 13 1007.4 - - - - - - - - -
31/04:30am 28.8 WNW 9 13 1007.3 - - - - - - - - -
31/04:00am 28.9 WNW 11 13 1007.3 - - - - - - - - -
31/03:30am 28.9 WNW 12 15 1007.2 - - - - - - - - -
31/03:00am 28.8 WNW 10 13 1007.0 - - - - - - - - -
31/02:30am 28.8 NW 9 12 1007.1 - - - - - - - - -
31/02:00am 28.8 WNW 10 13 1006.9 - - - - - - - - -
31/01:30am 28.9 WNW 10 12 1006.9 - - - - - - - - -
31/01:00am 28.9 NW 7 9 1007.1 - - - - - - - - -
31/12:30am 28.9 NW 7 10 1007.2 - - - - - - - - -
31/12:00am 29.0 NW 10 11 1007.3 - - - - - - - - -
 
Date/Time
WST
Temp

°C
Wind Pressure Rain
since 9am
mm
Weather Cloud Vis
km
Sea
Height
m
Swell
Dir
 
Speed
knots
Gust
knots
hPa Trend Height
m
Period
s
Dir
30/11:30pm 28.9 NW 10 12 1007.5 - - - - - - - - -
30/11:00pm 29.0 NW 7 10 1007.3 - - - - - - - - -
30/10:30pm 29.0 NW 8 10 1007.2 - - - - - - - - -
30/10:00pm 29.0 NW 8 10 1007.0 - - - - - - - - -
30/09:30pm 29.1 NW 10 12 1006.9 - - - - - - - - -
30/09:00pm 29.0 NW 8 11 1006.6 - - - - - - - - -
30/08:30pm 29.0 NW 9 12 1006.2 - - - - - - - - -
30/08:00pm 29.0 NW 10 14 1005.8 - - - - - - - - -
30/07:30pm 29.1 WNW 9 12 1005.7 - - - - - - - - -
30/07:00pm 29.1 WNW 11 15 1005.4 - - - - - - - - -
30/06:30pm 29.2 NW 12 15 1005.2 - - - - - - - - -
30/06:00pm 29.2 WNW 13 15 1005.1 - - - - - - - - -
30/05:30pm 29.2 WNW 13 16 1005.0 - - - - - - - - -
30/05:00pm 29.4 WNW 13 15 1005.0 - - - - - - - - -
30/04:30pm 29.6 NW 13 16 1004.8 - - - - - - - - -
30/04:00pm 29.4 NW 14 17 1004.6 - - - - - - - - -
30/03:30pm 29.6 WNW 13 16 1004.9 - - - - - - - - -
30/03:00pm 29.6 WNW 13 15 1005.3 - - - - - - - - -
30/02:30pm 29.6 WNW 14 17 1005.3 - - - - - - - - -
30/02:00pm 29.7 WNW 13 16 1005.8 - - - - - - - - -
30/01:30pm 29.5 WNW 13 17 1005.9 - - - - - - - - -
30/01:00pm 29.4 NW 11 15 1006.2 - - - - - - - - -
30/12:30pm 29.4 WNW 10 13 1006.8 - - - - - - - - -
30/12:00pm 29.5 WNW 11 15 1007.3 - - - - - - - - -
30/11:30am 29.4 WNW 10 13 1007.4 - - - - - - - - -
30/11:00am 29.2 NW 8 13 1007.5 - - - - - - - - -
30/10:30am 29.1 WNW 7 10 1008.0 - - - - - - - - -
30/10:00am 29.7 E 2 5 1007.9 - - - - - - - - -
30/09:30am 28.9 ENE 3 7 1008.0 - - - - - - - - -
30/09:00am 28.9 ENE 3 6 1008.2 - - - - - - - - -
30/08:30am 28.5 E 1 3 1008.2 - - - - - - - - -
30/08:00am 27.1 WSW 6 8 1008.0 - - - - - - - - -
30/07:30am 26.7 SSW 14 17 1007.7 - - - - - - - - -
30/07:10am 27.9 WSW 9 20 1007.7 - - - - - - - - -
30/07:00am 29.5 W 5 9 1007.5 - - - - - - - - -
30/06:30am 28.9 WNW 5 8 1007.1 - - - - - - - - -
30/06:00am 28.9 WNW 6 9 1006.8 - - - - - - - - -
30/05:30am 28.8 W 6 8 1006.6 - - - - - - - - -
30/05:00am 28.8 W 8 10 1006.4 - - - - - - - - -
30/04:30am 28.8 W 9 12 1006.3 - - - - - - - - -
30/04:00am 28.8 W 10 13 1006.1 - - - - - - - - -
30/03:30am 28.7 W 9 12 1005.9 - - - - - - - - -
30/03:00am 28.7 WNW 11 13 1005.6 - - - - - - - - -
30/02:30am 28.7 WNW 11 16 1005.3 - - - - - - - - -
30/02:00am 28.7 WNW 12 15 1005.4 - - - - - - - - -
30/01:30am 28.7 WNW 11 14 1005.6 - - - - - - - - -
30/01:00am 28.7 NW 10 14 1005.8 - - - - - - - - -
30/12:30am 28.8 WNW 10 13 1006.4 - - - - - - - - -
30/12:00am 28.8 NW 11 15 1006.2 - - - - - - - - -
 
Date/Time
WST
Temp

°C
Wind Pressure Rain
since 9am
mm
Weather Cloud Vis
km
Sea
Height
m
Swell
Dir
 
Speed
knots
Gust
knots
hPa Trend Height
m
Period
s
Dir
29/11:30pm 28.8 NW 11 14 1006.2 - - - - - - - - -
29/11:00pm 28.9 WNW 11 15 1006.3 - - - - - - - - -
29/10:30pm 28.9 NW 9 12 1006.5 - - - - - - - - -
29/10:00pm 28.9 NW 7 10 1006.3 - - - - - - - - -
29/09:30pm 28.9 WNW 9 11 1006.0 - - - - - - - - -
29/09:00pm 28.9 NW 10 12 1005.8 - - - - - - - - -
29/08:30pm 28.9 NW 7 9 1006.0 - - - - - - - - -
29/08:00pm 29.0 NW 8 10 1005.9 - - - - - - - - -
29/07:30pm 28.9 WNW 8 10 1005.6 - - - - - - - - -
29/07:00pm 29.0 NW 10 13 1005.2 - - - - - - - - -
29/06:30pm 29.1 WNW 12 15 1004.6 - - - - - - - - -
29/06:00pm 29.2 WNW 12 15 1004.2 - - - - - - - - -
29/05:30pm 29.3 WNW 12 16 1003.9 - - - - - - - - -
29/05:00pm 29.3 WNW 13 16 1003.9 - - - - - - - - -
29/04:30pm 29.2 WNW 12 15 1003.8 - - - - - - - - -
29/04:00pm 29.3 WNW 12 15 1003.9 - - - - - - - - -
29/03:30pm 29.0 WNW 11 15 1003.9 - - - - - - - - -
29/03:00pm 29.0 WNW 11 14 1004.1 - - - - - - - - -
29/02:30pm 28.7 WNW 11 15 1004.4 - - - - - - - - -
29/02:00pm 28.7 WNW 11 15 1004.5 - - - - - - - - -
29/01:30pm 28.6 WNW 11 15 1004.6 - - - - - - - - -
29/01:00pm 28.6 WNW 11 16 1004.8 - - - - - - - - -
29/12:30pm 28.6 WNW 11 15 1005.0 - - - - - - - - -
29/12:00pm 28.9 NW 11 14 1005.3 - - - - - - - - -
29/11:30am 28.7 NW 11 15 1005.6 - - - - - - - - -
29/11:00am 28.6 WNW 11 14 1006.0 - - - - - - - - -
29/10:30am 28.7 NW 9 11 1006.2 - - - - - - - - -
29/10:00am 28.9 NW 8 12 1006.6 - - - - - - - - -
29/09:30am 29.7 WSW 1 2 1007.0 - - - - - - - - -
29/09:00am 28.4 NNE 3 5 1007.1 - - - - - - - - -
29/08:30am 27.1 NE 5 7 1007.0 - - - - - - - - -
29/08:00am 26.6 ENE 8 11 1007.5 - - - - - - - - -
29/07:30am 25.4 ENE 11 15 1007.4 - - - - - - - - -
29/07:00am 24.1 ENE 11 14 1007.7 - - - - - - - - -
29/06:30am 23.8 E 13 16 1007.5 - - - - - - - - -
29/06:00am 23.9 E 17 20 1007.4 - - - - - - - - -
29/05:30am 23.5 E 23 27 1007.0 - - - - - - - - -
29/05:00am 23.9 E 28 31 1006.5 - - - - - - - - -
29/04:50am 24.5 ESE 20 32 1006.3 - - - - - - - - -
29/04:47am 24.9 SE 13 31 1006.5 - - - - - - - - -
29/04:44am 25.3 SSE 7 22 1006.6 - - - - - - - - -
29/04:30am 28.7 SW 3 4 1006.0 - - - - - - - - -
29/04:00am 28.6 W 5 8 1005.6 - - - - - - - - -
29/03:30am 28.5 WNW 9 11 1004.4 - - - - - - - - -
29/03:00am 28.4 WNW 11 15 1004.1 - - - - - - - - -
29/02:30am 28.4 WNW 13 17 1003.9 - - - - - - - - -
29/02:00am 28.5 WNW 13 15 1004.1 - - - - - - - - -
29/01:30am 28.5 WNW 12 15 1004.3 - - - - - - - - -
29/01:00am 28.5 WNW 11 14 1004.3 - - - - - - - - -
29/12:30am 28.6 WNW 13 16 1004.4 - - - - - - - - -

Other Formats:

Comma delimited format used in spreadsheet applications
http://www.bom.gov.au/fwo/IDW60701/IDW60701.95202.axf

JavaScript Object Notation format (JSON) in row-major order
http://www.bom.gov.au/fwo/IDW60701/IDW60701.95202.json